Time;durP1;ratioP1;P1;durP2;ratioP2;P2;SDS_P1;SDS_P2;PMS_P1;PMS_P2;Temp;Humidity;BMP_temperature;BMP_pressure;BME280_temperature;BME280_humidity;BME280_pressure;Samples;Min_cycle;Max_cycle;Signal;HPM_P1;HPM_P2
2022/04/16 00:00:52;;;;;;;21.98;19.20;;;;;;;;;;2092816;28;20163;-56
2022/04/16 00:01:53;;;;;;;20.67;17.73;;;;;;;;;;2094765;28;20582;-57
2022/04/16 00:02:54;;;;;;;22.85;18.55;;;;;;;;;;2096500;28;20171;-58
2022/04/16 00:03:55;;;;;;;22.38;17.75;;;;;;;;;;2097150;28;20206;-56
2022/04/16 00:04:57;;;;;;;23.13;17.83;;;;;;;;;;2095694;28;20195;-60
2022/04/16 00:05:57;;;;;;;20.42;17.48;;;;;;;;;;2096577;28;20638;-55
2022/04/16 00:06:57;;;;;;;19.15;16.33;;;;;;;;;;2097426;28;20205;-58
2022/04/16 00:08:07;;;;;;;22.08;17.75;;;;;;;;;;2097374;28;20207;-57
2022/04/16 00:09:07;;;;;;;20.38;18.27;;;;;;;;;;2097602;28;20167;-56
2022/04/16 00:10:08;;;;;;;20.92;16.92;;;;;;;;;;2087302;28;20180;-58
2022/04/16 00:11:08;;;;;;;20.77;17.63;;;;;;;;;;2080243;28;20247;-55
2022/04/16 00:12:09;;;;;;;22.73;19.15;;;;;;;;;;2089505;28;20191;-56
2022/04/16 00:13:09;;;;;;;20.55;18.35;;;;;;;;;;2088148;28;20834;-57
2022/04/16 00:14:10;;;;;;;21.55;18.42;;;;;;;;;;2085555;28;20174;-56
2022/04/16 00:15:11;;;;;;;22.15;18.83;;;;;;;;;;2084373;28;20195;-56
2022/04/16 00:16:12;;;;;;;22.23;17.67;;;;;;;;;;2086661;28;20176;-57
2022/04/16 00:17:13;;;;;;;22.88;18.33;;;;;;;;;;2088228;28;20171;-58
2022/04/16 00:18:13;;;;;;;22.25;18.40;;;;;;;;;;2091052;28;20188;-55
2022/04/16 00:19:14;;;;;;;21.92;19.30;;;;;;;;;;2090934;28;20255;-59
2022/04/16 00:20:15;;;;;;;24.33;19.38;;;;;;;;;;2091157;28;20553;-57
2022/04/16 00:21:15;;;;;;;21.60;19.00;;;;;;;;;;2090389;28;20207;-56
2022/04/16 00:22:16;;;;;;;25.40;19.63;;;;;;;;;;2087929;28;20194;-56
2022/04/16 00:23:19;;;;;;;24.05;19.58;;;;;;;;;;2084822;28;20172;-57
2022/04/16 00:24:19;;;;;;;24.00;18.98;;;;;;;;;;2083008;28;20275;-59
2022/04/16 00:25:20;;;;;;;25.88;20.67;;;;;;;;;;2084731;28;20185;-57
2022/04/16 00:26:21;;;;;;;24.88;19.58;;;;;;;;;;2077746;28;20161;-60
2022/04/16 00:27:22;;;;;;;24.77;19.25;;;;;;;;;;2077291;28;20185;-61
2022/04/16 00:28:24;;;;;;;23.95;20.15;;;;;;;;;;2075994;28;20207;-59
2022/04/16 00:29:24;;;;;;;24.35;20.35;;;;;;;;;;2075992;28;20252;-58
2022/04/16 00:30:25;;;;;;;23.35;19.42;;;;;;;;;;2077286;28;20176;-58
2022/04/16 00:31:28;;;;;;;22.92;19.95;;;;;;;;;;2077018;28;20165;-57
2022/04/16 00:32:28;;;;;;;23.63;20.95;;;;;;;;;;2076887;28;20545;-59
2022/04/16 00:33:28;;;;;;;24.23;20.48;;;;;;;;;;2076953;28;20169;-59
2022/04/16 00:34:28;;;;;;;25.80;22.08;;;;;;;;;;2076540;28;20204;-57
2022/04/16 00:35:29;;;;;;;27.17;20.88;;;;;;;;;;2076922;28;20160;-59
2022/04/16 00:36:29;;;;;;;25.48;21.38;;;;;;;;;;2076891;28;20193;-57
2022/04/16 00:37:30;;;;;;;26.55;22.98;;;;;;;;;;2076102;28;20208;-58
2022/04/16 00:38:30;;;;;;;28.42;22.85;;;;;;;;;;2076815;28;20248;-58
2022/04/16 00:39:30;;;;;;;32.40;23.90;;;;;;;;;;2077583;28;20200;-60
2022/04/16 00:40:30;;;;;;;27.63;22.30;;;;;;;;;;2077254;28;20177;-60
2022/04/16 00:41:31;;;;;;;28.20;23.38;;;;;;;;;;2078039;28;20184;-59
2022/04/16 00:42:44;;;;;;;29.42;22.67;;;;;;;;;;2078329;28;20172;-57
2022/04/16 00:43:44;;;;;;;26.77;22.60;;;;;;;;;;2077671;28;20188;-59
2022/04/16 00:44:44;;;;;;;30.02;24.30;;;;;;;;;;2077210;28;20196;-60
2022/04/16 00:45:44;;;;;;;31.60;23.52;;;;;;;;;;2077314;28;20197;-59
2022/04/16 00:46:45;;;;;;;29.30;23.95;;;;;;;;;;2077478;28;20169;-59
2022/04/16 00:47:45;;;;;;;29.17;24.38;;;;;;;;;;2076719;28;20165;-59
2022/04/16 00:48:46;;;;;;;30.70;23.40;;;;;;;;;;2077418;28;20355;-58
2022/04/16 00:49:46;;;;;;;30.27;24.58;;;;;;;;;;2078448;28;20165;-59
2022/04/16 00:50:53;;;;;;;28.42;24.27;;;;;;;;;;2077351;28;20197;-59
2022/04/16 00:51:53;;;;;;;29.02;24.00;;;;;;;;;;2077373;28;20184;-60
2022/04/16 00:52:53;;;;;;;28.23;23.35;;;;;;;;;;2077525;28;20260;-58
2022/04/16 00:53:54;;;;;;;32.33;24.98;;;;;;;;;;2077470;28;20169;-59
2022/04/16 00:54:55;;;;;;;30.08;25.48;;;;;;;;;;2076600;28;20239;-60
2022/04/16 00:56:00;;;;;;;32.08;25.65;;;;;;;;;;2076805;28;20231;-59
2022/04/16 00:57:01;;;;;;;30.65;24.75;;;;;;;;;;2076923;28;20165;-59
2022/04/16 00:58:01;;;;;;;32.30;24.67;;;;;;;;;;2068670;28;20240;-57
2022/04/16 00:59:01;;;;;;;33.65;25.20;;;;;;;;;;2067635;28;20177;-58
2022/04/16 01:00:02;;;;;;;33.22;26.23;;;;;;;;;;2076222;28;20548;-58
2022/04/16 01:01:02;;;;;;;32.35;26.00;;;;;;;;;;2076630;28;20209;-59
2022/04/16 01:02:03;;;;;;;33.10;24.73;;;;;;;;;;2076532;28;20169;-59
2022/04/16 01:03:03;;;;;;;32.55;25.85;;;;;;;;;;2076924;28;20654;-61
2022/04/16 01:04:03;;;;;;;33.97;26.10;;;;;;;;;;2076076;28;20220;-57
2022/04/16 01:05:04;;;;;;;32.78;26.65;;;;;;;;;;2076553;28;20283;-58
2022/04/16 01:06:05;;;;;;;32.30;26.42;;;;;;;;;;2077291;28;20177;-58
2022/04/16 01:07:05;;;;;;;30.05;25.50;;;;;;;;;;2076278;28;20587;-60
2022/04/16 01:08:06;;;;;;;31.73;26.60;;;;;;;;;;2076589;28;20610;-57
2022/04/16 01:09:06;;;;;;;32.05;25.55;;;;;;;;;;2076043;28;20276;-59
2022/04/16 01:10:06;;;;;;;34.22;26.88;;;;;;;;;;2075874;28;20169;-58
2022/04/16 01:11:07;;;;;;;31.45;26.23;;;;;;;;;;2076127;28;20180;-60
2022/04/16 01:12:07;;;;;;;31.98;25.63;;;;;;;;;;2075783;28;20176;-60
2022/04/16 01:13:08;;;;;;;33.83;26.52;;;;;;;;;;2075186;28;20185;-56
2022/04/16 01:14:08;;;;;;;31.05;25.27;;;;;;;;;;2074197;28;20248;-57
2022/04/16 01:15:09;;;;;;;30.17;25.65;;;;;;;;;;2074978;28;20259;-59
2022/04/16 01:16:10;;;;;;;31.38;26.27;;;;;;;;;;2074597;28;20712;-57
2022/04/16 01:17:11;;;;;;;31.10;25.35;;;;;;;;;;2075193;28;20172;-60
2022/04/16 01:18:12;;;;;;;30.33;24.50;;;;;;;;;;2074979;28;20181;-59
2022/04/16 01:19:12;;;;;;;33.20;25.73;;;;;;;;;;2075116;28;20177;-57
2022/04/16 01:20:13;;;;;;;29.58;25.20;;;;;;;;;;2075075;28;20596;-60
2022/04/16 01:21:14;;;;;;;32.97;25.27;;;;;;;;;;2073997;28;20185;-60
2022/04/16 01:22:14;;;;;;;27.25;24.30;;;;;;;;;;2074865;28;20216;-59
2022/04/16 01:23:15;;;;;;;31.25;23.60;;;;;;;;;;2074893;28;20202;-59
2022/04/16 01:24:15;;;;;;;28.58;24.60;;;;;;;;;;2074523;28;20177;-59
2022/04/16 01:25:16;;;;;;;28.52;23.45;;;;;;;;;;2074879;28;20201;-57
2022/04/16 01:26:16;;;;;;;30.45;24.00;;;;;;;;;;2087132;28;20202;-60
2022/04/16 01:27:18;;;;;;;28.45;24.13;;;;;;;;;;2084930;28;20544;-59
2022/04/16 01:28:18;;;;;;;29.38;24.02;;;;;;;;;;2086756;28;20752;-61
2022/04/16 01:29:20;;;;;;;26.80;21.88;;;;;;;;;;2085157;28;20168;-60
2022/04/16 01:30:21;;;;;;;27.13;24.05;;;;;;;;;;2089137;28;20180;-59
2022/04/16 01:31:22;;;;;;;31.85;23.63;;;;;;;;;;2091133;28;20215;-58
2022/04/16 01:32:23;;;;;;;27.67;23.02;;;;;;;;;;2091066;28;20238;-58
2022/04/16 01:33:23;;;;;;;25.85;22.05;;;;;;;;;;2091111;28;20192;-58
2022/04/16 01:34:25;;;;;;;25.23;22.50;;;;;;;;;;2083775;28;20656;-53
2022/04/16 01:35:25;;;;;;;25.80;22.50;;;;;;;;;;2087711;28;20236;-53
2022/04/16 01:36:29;;;;;;;25.05;21.95;;;;;;;;;;2083478;28;20218;-54
2022/04/16 01:37:33;;;;;;;25.30;21.65;;;;;;;;;;2089934;28;20190;-54
2022/04/16 01:38:34;;;;;;;25.23;22.33;;;;;;;;;;2082924;28;20634;-54
2022/04/16 01:39:34;;;;;;;24.05;21.42;;;;;;;;;;2090121;28;20179;-57
2022/04/16 01:40:34;;;;;;;20.58;18.35;;;;;;;;;;2073495;28;20706;-54
2022/04/16 01:41:35;;;;;;;21.00;18.80;;;;;;;;;;2075259;28;20252;-56
2022/04/16 01:42:36;;;;;;;20.73;18.30;;;;;;;;;;2074018;28;20181;-58
2022/04/16 01:43:37;;;;;;;20.95;18.75;;;;;;;;;;2090499;28;20534;-56
2022/04/16 01:44:37;;;;;;;19.67;17.55;;;;;;;;;;2090475;28;20214;-58
2022/04/16 01:45:37;;;;;;;19.95;17.88;;;;;;;;;;2081014;28;20762;-55
2022/04/16 01:46:37;;;;;;;20.20;17.67;;;;;;;;;;2080964;28;20176;-58
2022/04/16 01:47:38;;;;;;;18.98;16.98;;;;;;;;;;2081532;28;20299;-57
2022/04/16 01:48:39;;;;;;;19.88;17.90;;;;;;;;;;2090170;28;20160;-56
2022/04/16 01:49:40;;;;;;;20.25;18.10;;;;;;;;;;2087635;28;20204;-56
2022/04/16 01:50:40;;;;;;;19.25;17.30;;;;;;;;;;2082036;28;20169;-57
2022/04/16 01:51:41;;;;;;;19.52;17.23;;;;;;;;;;2081542;28;20195;-55
2022/04/16 01:52:42;;;;;;;19.55;17.50;;;;;;;;;;2082147;28;20207;-57
2022/04/16 01:53:42;;;;;;;20.38;17.25;;;;;;;;;;2081947;28;20191;-56
2022/04/16 01:54:42;;;;;;;19.73;17.70;;;;;;;;;;2081054;28;20192;-58
2022/04/16 01:55:42;;;;;;;19.63;16.75;;;;;;;;;;2081928;28;20698;-57
2022/04/16 01:56:43;;;;;;;18.80;16.80;;;;;;;;;;2082100;28;20645;-57
2022/04/16 01:57:43;;;;;;;18.92;16.88;;;;;;;;;;2073332;28;20177;-57
2022/04/16 01:58:44;;;;;;;18.35;16.45;;;;;;;;;;2065125;28;20177;-58
2022/04/16 01:59:47;;;;;;;22.13;18.00;;;;;;;;;;2073163;28;20192;-57
2022/04/16 02:00:49;;;;;;;19.95;17.85;;;;;;;;;;2082279;28;20191;-54
2022/04/16 02:01:49;;;;;;;19.23;17.08;;;;;;;;;;2081990;28;20168;-56
2022/04/16 02:02:50;;;;;;;21.40;18.35;;;;;;;;;;2082052;28;20551;-57
2022/04/16 02:03:50;;;;;;;19.95;17.90;;;;;;;;;;2082101;28;20202;-59
2022/04/16 02:04:51;;;;;;;21.38;19.13;;;;;;;;;;2081843;28;20611;-59
2022/04/16 02:05:52;;;;;;;23.33;19.92;;;;;;;;;;2082162;28;20517;-57
2022/04/16 02:06:53;;;;;;;20.75;18.48;;;;;;;;;;2082099;28;20172;-57
2022/04/16 02:07:54;;;;;;;20.13;18.02;;;;;;;;;;2081957;28;20594;-55
2022/04/16 02:08:54;;;;;;;21.05;18.70;;;;;;;;;;2081957;28;20180;-60
2022/04/16 02:09:54;;;;;;;20.08;18.08;;;;;;;;;;2073276;28;20220;-55
2022/04/16 02:10:54;;;;;;;22.25;19.25;;;;;;;;;;2074985;28;20263;-58
2022/04/16 02:11:54;;;;;;;21.92;18.65;;;;;;;;;;2086865;28;20275;-58
2022/04/16 02:12:55;;;;;;;23.60;19.63;;;;;;;;;;2083681;28;20172;-58
2022/04/16 02:13:55;;;;;;;22.92;17.95;;;;;;;;;;2090160;28;20206;-57
2022/04/16 02:14:55;;;;;;;22.65;19.20;;;;;;;;;;2089420;28;20257;-57
2022/04/16 02:15:56;;;;;;;22.17;18.85;;;;;;;;;;2089663;28;20160;-57
2022/04/16 02:16:57;;;;;;;20.90;18.52;;;;;;;;;;2090281;28;20172;-55
2022/04/16 02:17:57;;;;;;;20.92;18.70;;;;;;;;;;2090594;28;20690;-56
2022/04/16 02:19:00;;;;;;;22.80;18.35;;;;;;;;;;2090195;28;20175;-54
2022/04/16 02:20:00;;;;;;;20.17;18.02;;;;;;;;;;2090041;28;20174;-54
2022/04/16 02:21:01;;;;;;;20.25;18.20;;;;;;;;;;2089842;28;20353;-55
2022/04/16 02:22:01;;;;;;;20.83;18.58;;;;;;;;;;2090027;28;20207;-55
2022/04/16 02:23:02;;;;;;;23.92;19.35;;;;;;;;;;2090114;28;20167;-55
2022/04/16 02:24:02;;;;;;;22.33;18.50;;;;;;;;;;2080737;28;20660;-54
2022/04/16 02:25:07;;;;;;;20.10;17.85;;;;;;;;;;2081026;28;20184;-56
2022/04/16 02:26:09;;;;;;;22.38;18.65;;;;;;;;;;2083234;28;20637;-53
2022/04/16 02:27:10;;;;;;;21.73;19.15;;;;;;;;;;2081642;28;20183;-58
2022/04/16 02:28:10;;;;;;;20.90;18.55;;;;;;;;;;2081827;28;20287;-57
2022/04/16 02:29:11;;;;;;;19.90;17.77;;;;;;;;;;2082077;28;20172;-58
2022/04/16 02:30:12;;;;;;;22.38;18.92;;;;;;;;;;2082467;28;20156;-58
2022/04/16 02:31:12;;;;;;;22.55;19.35;;;;;;;;;;2082065;28;20212;-58
2022/04/16 02:32:14;;;;;;;19.73;17.65;;;;;;;;;;2082250;28;20671;-59
2022/04/16 02:33:15;;;;;;;20.48;18.38;;;;;;;;;;2077584;28;20255;-57
2022/04/16 02:34:16;;;;;;;22.27;18.38;;;;;;;;;;2072696;28;20180;-58
2022/04/16 02:35:17;;;;;;;21.20;18.90;;;;;;;;;;2086079;28;20204;-58
2022/04/16 02:36:19;;;;;;;23.88;19.05;;;;;;;;;;2085501;28;20259;-57
2022/04/16 02:37:19;;;;;;;23.67;19.63;;;;;;;;;;2081742;28;20191;-57
2022/04/16 02:38:19;;;;;;;21.67;19.38;;;;;;;;;;2072718;28;20177;-57
2022/04/16 02:39:20;;;;;;;23.67;19.30;;;;;;;;;;2072262;28;20304;-59
2022/04/16 02:40:20;;;;;;;20.67;18.48;;;;;;;;;;2073266;28;20175;-54
2022/04/16 02:41:21;;;;;;;22.27;19.90;;;;;;;;;;2081649;28;20538;-56
2022/04/16 02:42:21;;;;;;;22.05;18.73;;;;;;;;;;2073001;28;20177;-54
2022/04/16 02:43:21;;;;;;;23.33;19.83;;;;;;;;;;2072935;28;20177;-54
2022/04/16 02:47:05;;;;;;;22.83;18.70;;;;;;;;;;2081745;28;20153;-60
2022/04/16 02:48:05;;;;;;;22.33;19.45;;;;;;;;;;2081456;28;20208;-57
2022/04/16 02:49:06;;;;;;;21.60;18.73;;;;;;;;;;2072975;28;20175;-56
2022/04/16 02:50:07;;;;;;;24.65;19.63;;;;;;;;;;2078999;28;20172;-56
2022/04/16 02:51:08;;;;;;;23.80;18.75;;;;;;;;;;2081080;28;20548;-58
2022/04/16 02:52:08;;;;;;;23.80;20.23;;;;;;;;;;2080697;28;20164;-56
2022/04/16 02:53:08;;;;;;;23.33;19.27;;;;;;;;;;2090204;28;20557;-59
2022/04/16 02:54:09;;;;;;;26.15;20.70;;;;;;;;;;2089199;28;20179;-58
2022/04/16 02:55:09;;;;;;;25.15;20.50;;;;;;;;;;2089816;28;20301;-56
2022/04/16 02:56:09;;;;;;;26.88;20.77;;;;;;;;;;2089708;28;20489;-55
2022/04/16 02:57:11;;;;;;;26.05;21.10;;;;;;;;;;2089954;28;20700;-57
2022/04/16 02:58:12;;;;;;;27.95;21.85;;;;;;;;;;2089803;28;20175;-56
2022/04/16 02:59:13;;;;;;;23.80;19.55;;;;;;;;;;2090034;28;20517;-59
2022/04/16 03:00:13;;;;;;;23.73;20.70;;;;;;;;;;2090512;28;20167;-57
2022/04/16 03:01:14;;;;;;;27.17;21.17;;;;;;;;;;2090309;28;20183;-57
2022/04/16 03:02:14;;;;;;;24.02;20.30;;;;;;;;;;2090043;28;20262;-55
2022/04/16 03:03:15;;;;;;;26.90;19.92;;;;;;;;;;2090070;28;20609;-57
2022/04/16 03:04:15;;;;;;;24.58;20.77;;;;;;;;;;2089928;28;20466;-58
2022/04/16 03:05:15;;;;;;;24.85;20.38;;;;;;;;;;2089897;28;20195;-57
2022/04/16 03:06:16;;;;;;;25.83;19.45;;;;;;;;;;2090458;28;20762;-57
2022/04/16 03:07:16;;;;;;;26.35;20.77;;;;;;;;;;2090448;28;20258;-59
2022/04/16 03:08:17;;;;;;;25.48;20.20;;;;;;;;;;2090266;28;20682;-56
2022/04/16 03:09:17;;;;;;;24.77;20.42;;;;;;;;;;2090430;28;20205;-57
2022/04/16 03:10:17;;;;;;;23.25;19.52;;;;;;;;;;2080982;28;20362;-54
2022/04/16 03:11:18;;;;;;;23.20;19.88;;;;;;;;;;2076539;28;20169;-57
2022/04/16 03:12:18;;;;;;;26.15;21.02;;;;;;;;;;2087107;28;20183;-58
2022/04/16 03:13:19;;;;;;;24.23;20.48;;;;;;;;;;2083526;28;20184;-58
2022/04/16 03:18:16;;;;;;;25.13;19.45;;;;;;;;;;2090105;28;20189;-57
2022/04/16 03:19:16;;;;;;;25.15;20.20;;;;;;;;;;2090665;28;20245;-57
2022/04/16 03:20:18;;;;;;;22.60;18.90;;;;;;;;;;2090329;28;20655;-56
2022/04/16 03:21:19;;;;;;;24.85;20.25;;;;;;;;;;2090046;28;20285;-56
2022/04/16 03:22:19;;;;;;;25.88;20.15;;;;;;;;;;2090030;28;20163;-59
2022/04/16 03:23:20;;;;;;;27.98;20.70;;;;;;;;;;2090425;28;20187;-58
2022/04/16 03:24:20;;;;;;;27.20;20.63;;;;;;;;;;2083379;28;20291;-58
2022/04/16 03:25:20;;;;;;;28.13;20.88;;;;;;;;;;2087913;28;20248;-57
2022/04/16 03:26:20;;;;;;;25.48;20.88;;;;;;;;;;2083871;28;20176;-59
2022/04/16 03:27:21;;;;;;;25.83;21.35;;;;;;;;;;2088056;28;20179;-57
2022/04/16 03:28:21;;;;;;;26.75;20.60;;;;;;;;;;2089964;28;20199;-58
2022/04/16 03:29:21;;;;;;;26.83;20.13;;;;;;;;;;2089756;28;20714;-58
2022/04/16 03:30:23;;;;;;;26.35;20.05;;;;;;;;;;2090089;28;20220;-59
2022/04/16 03:31:24;;;;;;;26.08;21.67;;;;;;;;;;2090177;28;20533;-59
2022/04/16 03:32:24;;;;;;;29.65;22.75;;;;;;;;;;2090020;28;20171;-58
2022/04/16 03:33:24;;;;;;;31.48;21.25;;;;;;;;;;2089902;28;20195;-59
2022/04/16 03:34:24;;;;;;;30.00;21.65;;;;;;;;;;2089272;28;20191;-58
2022/04/16 03:35:25;;;;;;;26.25;21.33;;;;;;;;;;2089959;28;20225;-58
2022/04/16 03:36:25;;;;;;;26.60;20.83;;;;;;;;;;2090065;28;20184;-57
2022/04/16 03:37:27;;;;;;;29.35;21.42;;;;;;;;;;2090067;28;20160;-56
2022/04/16 03:38:27;;;;;;;29.10;21.73;;;;;;;;;;2082333;28;20184;-58
2022/04/16 03:39:28;;;;;;;26.40;20.05;;;;;;;;;;2082550;28;20188;-57
2022/04/16 03:40:28;;;;;;;27.05;21.08;;;;;;;;;;2082543;28;20184;-57
2022/04/16 03:41:28;;;;;;;27.95;20.50;;;;;;;;;;2091569;28;20171;-58
2022/04/16 03:42:28;;;;;;;27.58;20.65;;;;;;;;;;2091386;28;20220;-59
2022/04/16 03:43:29;;;;;;;25.27;20.60;;;;;;;;;;2091488;28;20174;-56
2022/04/16 03:44:29;;;;;;;28.05;20.55;;;;;;;;;;2090744;28;20704;-56
2022/04/16 03:45:31;;;;;;;27.17;20.02;;;;;;;;;;2090983;28;20640;-58
2022/04/16 03:46:31;;;;;;;27.70;21.00;;;;;;;;;;2081794;28;20199;-58
2022/04/16 03:47:32;;;;;;;25.40;19.10;;;;;;;;;;2074206;28;20204;-55
2022/04/16 03:48:32;;;;;;;25.95;19.60;;;;;;;;;;2081624;28;20598;-57
2022/04/16 03:49:32;;;;;;;25.15;19.67;;;;;;;;;;2089432;28;20729;-55
2022/04/16 03:50:33;;;;;;;23.40;18.63;;;;;;;;;;2083261;28;20173;-57
2022/04/16 03:51:33;;;;;;;27.23;19.63;;;;;;;;;;2083343;28;20192;-56
2022/04/16 03:52:43;;;;;;;21.08;18.02;;;;;;;;;;2083428;28;20187;-56
2022/04/16 03:53:43;;;;;;;24.08;19.98;;;;;;;;;;2083457;28;20156;-56
2022/04/16 03:59:59;;;;;;;21.52;17.55;;;;;;;;;;2091835;28;20225;-57
2022/04/16 04:01:00;;;;;;;20.52;16.73;;;;;;;;;;2091008;28;20625;-57
2022/04/16 04:02:00;;;;;;;22.70;16.58;;;;;;;;;;2090710;28;20166;-56
2022/04/16 04:03:02;;;;;;;20.02;15.85;;;;;;;;;;2091641;28;20175;-56
2022/04/16 04:04:02;;;;;;;20.63;16.33;;;;;;;;;;2089903;28;20163;-57
2022/04/16 04:05:02;;;;;;;21.80;17.05;;;;;;;;;;2082102;28;20219;-59
2022/04/16 04:06:03;;;;;;;19.98;15.52;;;;;;;;;;2087584;28;20592;-59
2022/04/16 04:07:03;;;;;;;19.27;15.32;;;;;;;;;;2087363;28;20660;-58
2022/04/16 04:08:04;;;;;;;19.65;16.00;;;;;;;;;;2083518;28;20274;-57
2022/04/16 04:09:06;;;;;;;22.00;15.52;;;;;;;;;;2082910;28;20711;-58
2022/04/16 04:10:07;;;;;;;17.30;13.95;;;;;;;;;;2092302;28;20176;-58
2022/04/16 04:11:07;;;;;;;16.25;14.38;;;;;;;;;;2082285;28;20176;-58
2022/04/16 04:12:11;;;;;;;19.33;14.52;;;;;;;;;;2083696;28;20229;-57
2022/04/16 04:13:12;;;;;;;17.20;14.40;;;;;;;;;;2086607;28;20173;-57
2022/04/16 04:14:12;;;;;;;18.70;14.05;;;;;;;;;;2088249;28;20171;-54
2022/04/16 04:15:12;;;;;;;17.70;15.23;;;;;;;;;;2091071;28;20203;-57
2022/04/16 04:16:12;;;;;;;17.15;14.07;;;;;;;;;;2091109;28;20281;-58
2022/04/16 04:17:13;;;;;;;20.27;15.40;;;;;;;;;;2092009;28;20229;-60
2022/04/16 04:18:14;;;;;;;17.38;14.55;;;;;;;;;;2092098;28;20175;-57
2022/04/16 04:19:14;;;;;;;15.45;13.85;;;;;;;;;;2091073;28;20206;-58
2022/04/16 04:20:14;;;;;;;16.83;13.02;;;;;;;;;;2091036;28;20180;-57
2022/04/16 04:21:14;;;;;;;14.68;12.75;;;;;;;;;;2091358;28;20167;-58
2022/04/16 04:22:15;;;;;;;15.50;13.13;;;;;;;;;;2091278;28;20246;-58
2022/04/16 04:23:16;;;;;;;15.90;12.73;;;;;;;;;;2091148;28;20176;-58
2022/04/16 04:24:16;;;;;;;13.88;11.25;;;;;;;;;;2090600;28;20207;-60
2022/04/16 04:25:17;;;;;;;15.88;12.55;;;;;;;;;;2091243;28;20200;-56
2022/04/16 04:26:17;;;;;;;12.80;11.35;;;;;;;;;;2083258;28;20203;-59
2022/04/16 04:27:17;;;;;;;13.48;12.07;;;;;;;;;;2083460;28;20180;-57
2022/04/16 04:28:18;;;;;;;14.13;12.07;;;;;;;;;;2083654;28;20199;-59
2022/04/16 04:29:18;;;;;;;16.08;11.98;;;;;;;;;;2083683;28;20168;-58
2022/04/16 04:30:18;;;;;;;14.07;11.70;;;;;;;;;;2084587;28;20256;-58
2022/04/16 04:31:18;;;;;;;13.10;11.40;;;;;;;;;;2083167;28;20168;-58
2022/04/16 04:32:18;;;;;;;14.52;12.57;;;;;;;;;;2082790;28;20668;-58
2022/04/16 04:33:19;;;;;;;15.93;11.52;;;;;;;;;;2082736;28;20703;-54
2022/04/16 04:34:19;;;;;;;12.98;11.27;;;;;;;;;;2072932;28;20678;-60
2022/04/16 04:35:19;;;;;;;13.70;11.43;;;;;;;;;;2104000;22;20239;-60
2022/04/16 04:36:19;;;;;;;15.07;11.98;;;;;;;;;;2087033;28;20680;-60
2022/04/16 04:37:20;;;;;;;16.20;12.15;;;;;;;;;;2082628;28;20165;-63
2022/04/16 04:38:20;;;;;;;13.32;11.07;;;;;;;;;;2082794;28;20164;-62
2022/04/16 04:39:20;;;;;;;12.63;10.65;;;;;;;;;;2084522;28;20200;-60
2022/04/16 04:40:21;;;;;;;13.20;11.80;;;;;;;;;;2082337;28;20204;-60
2022/04/16 04:41:21;;;;;;;14.52;11.25;;;;;;;;;;2082787;28;20200;-62
2022/04/16 04:42:25;;;;;;;14.53;12.47;;;;;;;;;;2074325;28;20173;-60
2022/04/16 04:43:25;;;;;;;12.70;11.40;;;;;;;;;;2066652;28;20172;-58
2022/04/16 04:44:26;;;;;;;14.98;12.05;;;;;;;;;;2074367;28;20700;-65
2022/04/16 04:45:26;;;;;;;14.60;11.90;;;;;;;;;;2066353;28;20213;-58
2022/04/16 04:46:26;;;;;;;15.27;12.73;;;;;;;;;;2064984;28;20607;-63
2022/04/16 04:47:26;;;;;;;13.20;10.90;;;;;;;;;;2080194;28;20196;-63
2022/04/16 04:48:27;;;;;;;13.32;10.88;;;;;;;;;;2073036;28;20283;-58
2022/04/16 04:49:27;;;;;;;16.73;11.93;;;;;;;;;;2076252;28;20176;-58
2022/04/16 04:50:27;;;;;;;13.43;10.98;;;;;;;;;;2083938;28;20172;-59
2022/04/16 04:51:27;;;;;;;16.20;12.43;;;;;;;;;;2089792;28;20314;-59
2022/04/16 04:52:29;;;;;;;16.08;11.65;;;;;;;;;;2083400;28;20230;-60
2022/04/16 04:53:29;;;;;;;14.45;11.80;;;;;;;;;;2082574;28;20185;-62
2022/04/16 04:54:30;;;;;;;16.63;11.88;;;;;;;;;;2082258;28;20164;-62
2022/04/16 04:55:30;;;;;;;13.15;11.18;;;;;;;;;;2082767;28;20204;-61
2022/04/16 04:56:30;;;;;;;14.98;11.60;;;;;;;;;;2083075;28;20173;-62
2022/04/16 04:57:31;;;;;;;12.30;10.93;;;;;;;;;;2083427;28;20222;-62
2022/04/16 04:58:31;;;;;;;12.57;10.45;;;;;;;;;;2083317;28;20291;-62
2022/04/16 04:59:31;;;;;;;13.65;11.73;;;;;;;;;;2083314;28;20313;-62
2022/04/16 05:00:32;;;;;;;12.77;11.48;;;;;;;;;;2083080;28;20180;-61
2022/04/16 05:01:32;;;;;;;12.30;10.85;;;;;;;;;;2082752;28;20180;-62
2022/04/16 05:02:39;;;;;;;13.88;11.45;;;;;;;;;;2074846;28;20554;-60
2022/04/16 05:03:39;;;;;;;15.13;10.73;;;;;;;;;;2073951;28;20176;-60
2022/04/16 05:04:39;;;;;;;12.18;10.85;;;;;;;;;;2073359;28;20181;-62
2022/04/16 05:05:39;;;;;;;13.13;10.38;;;;;;;;;;2090136;28;20195;-61
2022/04/16 05:06:39;;;;;;;13.45;10.85;;;;;;;;;;2089910;28;20247;-62
2022/04/16 05:07:40;;;;;;;15.52;11.27;;;;;;;;;;2073669;28;20177;-62
2022/04/16 05:08:40;;;;;;;12.07;10.77;;;;;;;;;;2065444;28;20538;-62
2022/04/16 05:09:40;;;;;;;12.18;9.95;;;;;;;;;;2079319;28;20164;-60
2022/04/16 05:10:41;;;;;;;14.75;11.10;;;;;;;;;;2083875;28;20178;-63
2022/04/16 05:11:41;;;;;;;16.73;11.55;;;;;;;;;;2084240;28;20168;-63
2022/04/16 05:12:41;;;;;;;11.70;10.43;;;;;;;;;;2080883;28;20256;-64
2022/04/16 05:13:42;;;;;;;11.68;10.15;;;;;;;;;;2074089;28;20184;-60
2022/04/16 05:14:42;;;;;;;14.73;11.40;;;;;;;;;;2080961;28;20183;-61
2022/04/16 05:15:42;;;;;;;11.60;10.40;;;;;;;;;;2081659;28;20248;-60
2022/04/16 05:16:42;;;;;;;11.98;10.40;;;;;;;;;;2073107;28;20655;-60
2022/04/16 05:17:43;;;;;;;13.80;10.30;;;;;;;;;;2081623;28;20238;-63
2022/04/16 05:18:43;;;;;;;13.18;10.77;;;;;;;;;;2089510;28;20182;-63
2022/04/16 05:19:44;;;;;;;11.50;9.68;;;;;;;;;;2082667;28;20164;-62
2022/04/16 05:20:44;;;;;;;15.07;10.77;;;;;;;;;;2082530;28;20539;-61
2022/04/16 05:21:44;;;;;;;14.65;10.50;;;;;;;;;;2073608;28;20219;-64
2022/04/16 05:22:44;;;;;;;13.07;10.55;;;;;;;;;;2073780;28;20231;-60
2022/04/16 05:23:45;;;;;;;12.48;10.07;;;;;;;;;;2082166;28;20181;-61
2022/04/16 05:24:45;;;;;;;13.60;9.70;;;;;;;;;;2082029;28;20167;-60
2022/04/16 05:25:45;;;;;;;12.00;9.60;;;;;;;;;;2085252;28;20167;-64
2022/04/16 05:26:46;;;;;;;11.70;9.93;;;;;;;;;;2090711;28;20164;-63
2022/04/16 05:27:46;;;;;;;11.75;9.13;;;;;;;;;;2084949;28;20192;-62
2022/04/16 05:28:46;;;;;;;11.90;9.40;;;;;;;;;;2088271;28;20213;-62
2022/04/16 05:29:56;;;;;;;13.03;9.97;;;;;;;;;;2082971;28;20176;-60
2022/04/16 05:30:58;;;;;;;12.63;9.20;;;;;;;;;;2090813;28;20255;-61
2022/04/16 05:31:58;;;;;;;9.83;8.53;;;;;;;;;;2081583;28;20367;-62
2022/04/16 05:33:02;;;;;;;10.35;8.65;;;;;;;;;;2081594;28;20339;-61
2022/04/16 05:34:21;;;;;;;10.40;8.77;;;;;;;;;;2090075;28;20164;-62
2022/04/16 05:35:21;;;;;;;9.50;8.30;;;;;;;;;;2087947;28;20773;-63
2022/04/16 05:36:21;;;;;;;9.65;7.55;;;;;;;;;;2088742;28;20207;-62
2022/04/16 05:37:22;;;;;;;11.93;8.90;;;;;;;;;;2084164;28;20268;-63
2022/04/16 05:38:22;;;;;;;12.25;8.80;;;;;;;;;;2082261;28;20180;-64
2022/04/16 05:39:22;;;;;;;10.73;7.97;;;;;;;;;;2082274;28;20165;-59
2022/04/16 05:40:22;;;;;;;9.57;7.70;;;;;;;;;;2081514;28;20283;-63
2022/04/16 05:41:23;;;;;;;9.98;8.02;;;;;;;;;;2082280;28;20678;-61
2022/04/16 05:42:23;;;;;;;8.38;7.47;;;;;;;;;;2082259;28;20177;-61
2022/04/16 05:43:24;;;;;;;12.65;8.07;;;;;;;;;;2082227;28;20222;-60
2022/04/16 05:44:24;;;;;;;8.97;7.90;;;;;;;;;;2081662;28;20298;-61
2022/04/16 05:45:24;;;;;;;7.72;6.88;;;;;;;;;;2081960;28;20196;-61
2022/04/16 05:46:24;;;;;;;9.80;7.70;;;;;;;;;;2081401;28;20187;-61
2022/04/16 05:47:25;;;;;;;11.43;8.10;;;;;;;;;;2081559;28;20211;-60
2022/04/16 05:48:25;;;;;;;8.82;7.88;;;;;;;;;;2073190;28;20211;-59
2022/04/16 05:49:25;;;;;;;8.70;7.00;;;;;;;;;;2073372;28;20175;-56
2022/04/16 05:50:26;;;;;;;8.13;7.32;;;;;;;;;;2082080;28;20557;-58
2022/04/16 05:51:27;;;;;;;7.50;6.78;;;;;;;;;;2082424;28;20167;-64
2022/04/16 05:52:27;;;;;;;8.17;7.30;;;;;;;;;;2082069;28;20181;-61
2022/04/16 05:53:28;;;;;;;8.55;6.97;;;;;;;;;;2082293;28;20180;-61
2022/04/16 05:54:29;;;;;;;7.97;6.90;;;;;;;;;;2081565;28;20679;-63
2022/04/16 05:55:31;;;;;;;10.65;6.50;;;;;;;;;;2088665;28;20191;-61
2022/04/16 05:56:31;;;;;;;8.95;6.90;;;;;;;;;;2081887;28;20602;-63
2022/04/16 05:57:32;;;;;;;7.80;6.93;;;;;;;;;;2090010;28;20184;-62
2022/04/16 05:58:32;;;;;;;7.63;6.77;;;;;;;;;;2090341;28;20195;-63
2022/04/16 05:59:33;;;;;;;7.87;7.17;;;;;;;;;;2090850;28;20245;-62
2022/04/16 06:00:33;;;;;;;7.83;7.03;;;;;;;;;;2091613;28;20183;-63
2022/04/16 06:01:33;;;;;;;8.75;7.25;;;;;;;;;;2083684;28;20692;-60
2022/04/16 06:02:34;;;;;;;8.23;7.43;;;;;;;;;;2082626;28;20263;-63
2022/04/16 06:03:36;;;;;;;7.93;7.13;;;;;;;;;;2091317;28;20178;-63
2022/04/16 06:04:36;;;;;;;7.88;6.85;;;;;;;;;;2090657;28;20171;-61
2022/04/16 06:05:37;;;;;;;7.97;7.13;;;;;;;;;;2091174;28;20574;-62
2022/04/16 06:06:37;;;;;;;8.63;6.60;;;;;;;;;;2090975;28;20316;-63